createdAt,value
2018-10-07T00:00:49.865Z,95.20
2018-10-07T00:03:18.644Z,95.00
2018-10-07T00:05:47.934Z,95.20
2018-10-07T00:08:16.497Z,95.20
2018-10-07T00:10:45.098Z,95.30
2018-10-07T00:13:13.788Z,95.30
2018-10-07T00:15:42.746Z,95.70
2018-10-07T00:18:11.319Z,95.70
2018-10-07T00:20:39.937Z,95.40
2018-10-07T00:23:08.521Z,95.40
2018-10-07T00:25:37.106Z,95.60
2018-10-07T00:28:06.060Z,95.70
2018-10-07T00:30:34.673Z,95.90
2018-10-07T00:33:03.237Z,96.20
2018-10-07T00:35:31.832Z,96.00
2018-10-07T00:38:00.412Z,96.40
2018-10-07T00:40:29.013Z,96.10
2018-10-07T00:42:57.652Z,96.00
2018-10-07T00:45:26.310Z,95.50
2018-10-07T00:47:54.909Z,95.00
2018-10-07T00:50:23.549Z,95.80
2018-10-07T00:52:52.368Z,96.10
2018-10-07T00:55:21.733Z,96.40
2018-10-07T00:57:50.326Z,96.20
2018-10-07T01:00:19.175Z,95.60
2018-10-07T01:02:47.776Z,96.70
2018-10-07T01:05:16.394Z,96.90
2018-10-07T01:07:44.977Z,96.50
2018-10-07T01:10:13.576Z,95.90
2018-10-07T01:12:42.224Z,96.00
2018-10-07T01:15:10.887Z,96.70
2018-10-07T01:17:39.682Z,97.00
2018-10-07T01:20:08.360Z,96.80
2018-10-07T01:22:37.351Z,96.50
2018-10-07T01:25:06.237Z,96.80
2018-10-07T01:27:34.918Z,96.50
2018-10-07T01:30:05.080Z,95.30
2018-10-07T01:32:33.653Z,95.80
2018-10-07T01:35:02.260Z,95.80
2018-10-07T01:37:30.837Z,95.70
2018-10-07T01:39:59.434Z,95.70
2018-10-07T01:42:28.042Z,95.50
2018-10-07T01:44:56.660Z,96.80
2018-10-07T01:47:25.240Z,95.90
2018-10-07T01:49:54.514Z,96.20
2018-10-07T01:52:23.103Z,96.90
2018-10-07T01:54:51.712Z,96.60
2018-10-07T01:57:20.281Z,97.10
2018-10-07T01:59:49.005Z,96.40
2018-10-07T02:02:17.583Z,96.90
2018-10-07T02:04:46.180Z,97.00
2018-10-07T02:07:22.176Z,96.20
2018-10-07T02:09:55.495Z,95.20
2018-10-07T02:12:25.792Z,96.80
2018-10-07T02:14:55.045Z,96.50
2018-10-07T02:17:23.676Z,96.30
2018-10-07T02:19:52.281Z,95.40
2018-10-07T02:22:20.925Z,95.70
2018-10-07T02:24:49.691Z,95.90
2018-10-07T02:27:18.277Z,96.30
2018-10-07T02:29:46.857Z,96.90
2018-10-07T02:32:15.454Z,96.90
2018-10-07T02:34:44.025Z,96.60
2018-10-07T02:37:12.615Z,97.70
2018-10-07T02:39:41.176Z,97.00
2018-10-07T02:42:09.810Z,97.00
2018-10-07T02:44:38.393Z,96.30
2018-10-07T02:47:07.240Z,96.80
2018-10-07T02:49:35.796Z,95.70
2018-10-07T02:52:04.466Z,96.80
2018-10-07T02:54:33.403Z,96.90
2018-10-07T02:57:02.089Z,97.70
2018-10-07T02:59:30.751Z,97.60
2018-10-07T03:01:59.378Z,97.00
2018-10-07T03:04:28.027Z,96.40
2018-10-07T03:06:56.620Z,96.60
2018-10-07T03:09:25.231Z,97.10
2018-10-07T03:11:53.808Z,96.30
2018-10-07T03:14:22.394Z,96.00
2018-10-07T03:16:51.000Z,96.20
2018-10-07T03:19:19.574Z,96.50
2018-10-07T03:21:48.187Z,96.30
2018-10-07T03:24:16.759Z,97.40
2018-10-07T03:26:45.351Z,96.70
2018-10-07T03:29:13.979Z,96.50
2018-10-07T03:31:42.662Z,97.10
2018-10-07T03:34:11.649Z,97.60
2018-10-07T03:36:40.304Z,97.40
2018-10-07T03:39:09.360Z,97.80
2018-10-07T03:41:38.269Z,97.80
2018-10-07T03:44:06.933Z,97.90
2018-10-07T03:46:35.549Z,98.30
2018-10-07T03:49:04.141Z,97.60
2018-10-07T03:51:32.727Z,98.00
2018-10-07T03:54:01.297Z,97.30
2018-10-07T03:56:29.900Z,97.80
2018-10-07T03:58:58.481Z,97.60
2018-10-07T04:01:27.184Z,97.50
2018-10-07T04:03:55.777Z,97.70
2018-10-07T04:06:24.380Z,97.10
2018-10-07T04:08:52.966Z,97.00
2018-10-07T04:11:21.570Z,96.10
2018-10-07T04:13:50.139Z,96.80
2018-10-07T04:16:18.805Z,97.20
2018-10-07T04:18:47.337Z,96.80
2018-10-07T04:21:15.933Z,96.60
2018-10-07T04:23:44.496Z,96.10
2018-10-07T04:26:13.108Z,96.60
2018-10-07T04:28:41.688Z,96.70
2018-10-07T04:31:10.294Z,97.70
2018-10-07T04:33:38.865Z,98.40
2018-10-07T04:36:07.474Z,99.40
2018-10-07T04:38:36.128Z,97.10
2018-10-07T04:41:04.712Z,97.70
2018-10-07T04:43:33.312Z,97.10
2018-10-07T04:46:01.918Z,97.30
2018-10-07T04:48:30.538Z,97.90
2018-10-07T04:50:59.137Z,97.00
2018-10-07T04:53:27.706Z,98.30
2018-10-07T04:55:56.416Z,96.70
2018-10-07T04:58:25.016Z,96.80
2018-10-07T05:00:53.838Z,97.20
2018-10-07T05:03:22.445Z,96.70
2018-10-07T05:05:51.229Z,97.10
2018-10-07T05:08:19.916Z,96.10
2018-10-07T05:10:51.516Z,96.20
2018-10-07T05:13:42.053Z,97.60
2018-10-07T05:16:10.968Z,97.80
2018-10-07T05:18:39.584Z,99.70
2018-10-07T05:21:08.250Z,98.40
2018-10-07T05:23:36.878Z,97.70
2018-10-07T05:26:05.535Z,98.40
2018-10-07T05:28:34.130Z,98.10
2018-10-07T05:31:02.754Z,97.00
2018-10-07T05:33:31.411Z,97.40
2018-10-07T05:35:59.924Z,97.40
2018-10-07T05:38:28.534Z,97.10
2018-10-07T05:40:57.682Z,96.70
2018-10-07T05:43:26.603Z,97.70
2018-10-07T05:45:55.751Z,99.60
2018-10-07T05:48:24.349Z,99.00
2018-10-07T05:50:52.991Z,98.20
2018-10-07T05:53:21.611Z,98.50
2018-10-07T05:55:50.318Z,97.90
2018-10-07T05:58:19.178Z,97.50
2018-10-07T06:00:47.844Z,97.50
2018-10-07T06:03:22.748Z,97.40
2018-10-07T06:05:51.918Z,97.60
2018-10-07T06:08:21.069Z,98.10
2018-10-07T06:10:49.673Z,98.20
2018-10-07T06:13:18.321Z,98.50
2018-10-07T06:15:46.936Z,99.70
2018-10-07T06:18:15.589Z,99.30
2018-10-07T06:20:44.168Z,99.90
2018-10-07T06:23:12.805Z,98.20
2018-10-07T06:25:41.403Z,97.90
2018-10-07T06:28:10.034Z,97.80
2018-10-07T06:30:38.620Z,98.00
2018-10-07T06:33:07.287Z,98.90
2018-10-07T06:35:36.874Z,98.90
2018-10-07T06:38:08.345Z,99.20
2018-10-07T06:40:37.048Z,98.70
2018-10-07T06:43:05.713Z,99.70
2018-10-07T06:45:34.468Z,98.70
2018-10-07T06:48:03.205Z,99.90
2018-10-07T06:50:31.833Z,99.90
2018-10-07T06:53:00.447Z,99.90
2018-10-07T06:55:29.035Z,99.90
2018-10-07T06:57:57.656Z,99.70
2018-10-07T07:00:26.267Z,99.30
2018-10-07T07:02:54.892Z,98.60
2018-10-07T07:05:23.473Z,97.20
2018-10-07T07:07:52.060Z,96.60
2018-10-07T07:10:20.625Z,95.40
2018-10-07T07:12:51.082Z,94.00
2018-10-07T07:15:19.748Z,93.50
2018-10-07T07:17:48.369Z,91.90
2018-10-07T07:20:17.007Z,91.70
2018-10-07T07:22:45.598Z,91.00
2018-10-07T07:25:14.173Z,90.50
2018-10-07T07:27:42.985Z,89.50
2018-10-07T07:30:11.696Z,88.50
2018-10-07T07:32:40.270Z,87.00
2018-10-07T07:35:08.901Z,87.00
2018-10-07T07:37:37.485Z,87.60
2018-10-07T07:40:06.549Z,85.70
2018-10-07T07:42:35.156Z,84.40
2018-10-07T07:45:03.839Z,84.10
2018-10-07T07:47:32.408Z,83.80
2018-10-07T07:50:01.009Z,80.60
2018-10-07T07:52:29.587Z,81.60
2018-10-07T07:54:58.207Z,82.50
2018-10-07T07:57:26.791Z,78.70
2018-10-07T07:59:55.385Z,82.00
2018-10-07T08:02:23.962Z,80.30
2018-10-07T08:04:52.904Z,77.30
2018-10-07T08:07:21.473Z,73.20
2018-10-07T08:09:50.065Z,73.40
2018-10-07T08:12:18.658Z,73.00
2018-10-07T08:14:47.261Z,73.00
2018-10-07T08:17:15.842Z,71.90
2018-10-07T08:19:44.456Z,73.10
2018-10-07T08:22:13.152Z,71.30
2018-10-07T08:24:41.750Z,73.10
2018-10-07T08:27:10.759Z,72.40
2018-10-07T08:29:39.425Z,74.10
2018-10-07T08:32:07.978Z,70.90
2018-10-07T08:34:36.574Z,69.90
2018-10-07T08:37:05.214Z,72.00
2018-10-07T08:39:33.818Z,70.60
2018-10-07T08:42:02.422Z,64.30
2018-10-07T08:44:31.014Z,66.90
2018-10-07T08:46:59.630Z,67.50
2018-10-07T08:49:28.229Z,66.00
2018-10-07T08:51:56.800Z,63.10
2018-10-07T08:54:25.625Z,65.10
2018-10-07T08:56:54.196Z,60.60
2018-10-07T08:59:22.805Z,58.80
2018-10-07T09:01:51.404Z,58.20
2018-10-07T09:04:20.024Z,59.70
2018-10-07T09:06:48.598Z,61.00
2018-10-07T09:09:17.196Z,58.10
2018-10-07T09:11:45.765Z,56.00
2018-10-07T09:14:14.371Z,60.00
2018-10-07T09:16:42.957Z,62.10
2018-10-07T09:19:11.635Z,63.40
2018-10-07T09:21:40.217Z,60.00
2018-10-07T09:24:08.854Z,62.50
2018-10-07T09:26:37.451Z,62.50
2018-10-07T09:29:06.254Z,63.00
2018-10-07T09:31:34.890Z,64.00
2018-10-07T09:34:03.498Z,63.90
2018-10-07T09:36:32.080Z,66.10
2018-10-07T09:39:00.689Z,65.60
2018-10-07T09:41:29.268Z,66.90
2018-10-07T09:43:58.010Z,67.40
2018-10-07T09:46:26.680Z,62.50
2018-10-07T09:48:55.333Z,59.90
2018-10-07T09:51:24.046Z,61.30
2018-10-07T09:53:52.652Z,58.50
2018-10-07T09:56:21.241Z,57.90
2018-10-07T09:58:49.858Z,60.10
2018-10-07T10:01:18.487Z,58.50
2018-10-07T10:03:47.081Z,57.50
2018-10-07T10:06:15.661Z,55.80
2018-10-07T10:08:44.262Z,58.00
2018-10-07T10:11:13.061Z,53.70
2018-10-07T10:13:41.749Z,59.10
2018-10-07T10:16:10.454Z,54.40
2018-10-07T10:18:43.702Z,53.30
2018-10-07T10:21:37.421Z,53.60
2018-10-07T10:26:21.800Z,54.00
2018-10-07T10:29:05.153Z,54.20
2018-10-07T10:31:46.618Z,53.80
2018-10-07T10:36:30.436Z,53.80
2018-10-07T10:39:05.657Z,51.30
2018-10-07T10:42:00.889Z,54.00
2018-10-07T10:44:49.873Z,51.70
2018-10-07T10:47:26.687Z,54.20
2018-10-07T10:52:03.409Z,52.00
2018-10-07T10:54:48.570Z,51.50
2018-10-07T10:57:26.305Z,50.10
2018-10-07T11:00:26.604Z,49.00
2018-10-07T11:05:12.510Z,52.60
2018-10-07T11:08:00.114Z,53.90
2018-10-07T11:10:35.817Z,52.50
2018-10-07T11:13:21.544Z,53.50
2018-10-07T11:16:58.909Z,54.20
2018-10-07T11:21:46.034Z,53.20
2018-10-07T11:24:20.913Z,53.50
2018-10-07T11:27:16.657Z,57.30
2018-10-07T11:29:55.880Z,57.30
2018-10-07T11:33:37.140Z,58.20
2018-10-07T11:36:21.977Z,57.50
2018-10-07T11:39:06.139Z,58.80
2018-10-07T11:42:15.207Z,59.40
2018-10-07T11:45:06.578Z,60.00
2018-10-07T11:48:48.055Z,61.00
2018-10-07T11:51:57.822Z,60.90
2018-10-07T11:55:07.062Z,60.70
2018-10-07T11:57:35.716Z,61.80
2018-10-07T12:00:04.418Z,61.90
2018-10-07T12:02:33.069Z,62.00
2018-10-07T12:05:01.621Z,61.60
2018-10-07T12:07:31.810Z,62.30
2018-10-07T12:10:00.397Z,63.20
2018-10-07T12:12:29.004Z,62.50
2018-10-07T12:14:57.581Z,61.70
2018-10-07T12:17:26.193Z,63.00
2018-10-07T12:19:54.769Z,63.60
2018-10-07T12:22:23.375Z,63.60
2018-10-07T12:24:51.980Z,63.90
2018-10-07T12:27:20.585Z,64.30
2018-10-07T12:29:49.171Z,63.20
2018-10-07T12:32:17.793Z,64.10
2018-10-07T12:34:46.361Z,64.10
2018-10-07T12:37:14.972Z,64.40
2018-10-07T12:39:43.586Z,64.70
2018-10-07T12:42:12.284Z,64.60
2018-10-07T12:44:41.088Z,65.00
2018-10-07T12:47:09.691Z,65.40
2018-10-07T12:49:38.264Z,65.80
2018-10-07T12:52:06.955Z,65.00
2018-10-07T12:54:35.641Z,65.30
2018-10-07T12:57:04.328Z,65.50
2018-10-07T12:59:32.908Z,66.00
2018-10-07T13:02:01.516Z,65.40
2018-10-07T13:04:30.094Z,65.40
2018-10-07T13:06:58.705Z,66.40
2018-10-07T13:09:27.299Z,66.40
2018-10-07T13:11:56.248Z,66.50
2018-10-07T13:14:24.828Z,67.30
2018-10-07T13:16:53.429Z,66.80
2018-10-07T13:19:22.028Z,67.10
2018-10-07T13:21:50.621Z,66.80
2018-10-07T13:24:19.202Z,67.10
2018-10-07T13:26:47.761Z,66.60
2018-10-07T13:29:16.365Z,67.70
2018-10-07T13:31:44.965Z,67.80
2018-10-07T13:34:13.578Z,67.60
2018-10-07T13:36:42.161Z,67.80
2018-10-07T13:39:13.097Z,67.20
2018-10-07T13:41:42.064Z,67.70
2018-10-07T13:44:10.741Z,67.70
2018-10-07T13:46:39.334Z,67.60
2018-10-07T13:49:07.944Z,68.00
2018-10-07T13:51:36.516Z,67.70
2018-10-07T13:54:05.164Z,67.70
2018-10-07T13:56:33.748Z,68.80
2018-10-07T13:59:02.347Z,68.80
2018-10-07T14:01:30.925Z,68.80
2018-10-07T14:03:59.700Z,69.20
2018-10-07T14:06:28.241Z,68.20
2018-10-07T14:08:56.836Z,68.00
2018-10-07T14:11:25.520Z,68.80
2018-10-07T14:13:55.056Z,69.10
2018-10-07T14:16:23.717Z,69.00
2018-10-07T14:18:52.316Z,69.10
2018-10-07T14:21:20.876Z,69.00
2018-10-07T14:23:49.884Z,69.20
2018-10-07T14:26:18.422Z,69.30
2018-10-07T14:28:47.357Z,69.80
2018-10-07T14:31:16.005Z,69.70
2018-10-07T14:33:45.028Z,69.90
2018-10-07T14:36:13.616Z,70.00
2018-10-07T14:38:42.572Z,70.60
2018-10-07T14:41:11.154Z,70.40
2018-10-07T14:43:39.778Z,70.30
2018-10-07T14:46:08.374Z,70.60
2018-10-07T14:48:37.193Z,70.80
2018-10-07T14:51:07.543Z,70.70
2018-10-07T14:53:36.272Z,71.20
2018-10-07T14:56:04.849Z,71.60
2018-10-07T14:58:33.450Z,71.80
2018-10-07T15:01:02.046Z,71.70
2018-10-07T15:03:30.666Z,71.60
2018-10-07T15:05:59.458Z,71.40
2018-10-07T15:08:28.044Z,71.90
2018-10-07T15:10:56.652Z,71.90
2018-10-07T15:13:25.882Z,72.10
2018-10-07T15:15:54.465Z,73.20
2018-10-07T15:18:27.097Z,72.70
2018-10-07T15:20:55.729Z,73.00
2018-10-07T15:23:28.433Z,73.50
2018-10-07T15:25:57.030Z,73.00
2018-10-07T15:28:25.644Z,73.40
2018-10-07T15:30:54.276Z,73.80
2018-10-07T15:33:22.841Z,74.10
2018-10-07T15:35:51.432Z,74.20
2018-10-07T15:38:20.019Z,74.20
2018-10-07T15:40:48.632Z,74.30
2018-10-07T15:43:17.448Z,73.90
2018-10-07T15:45:46.044Z,74.30
2018-10-07T15:48:14.936Z,74.30
2018-10-07T15:50:43.554Z,75.20
2018-10-07T15:53:12.132Z,74.40
2018-10-07T15:55:41.054Z,74.20
2018-10-07T15:58:09.634Z,74.70
2018-10-07T16:00:38.258Z,74.60
2018-10-07T16:03:06.996Z,74.90
2018-10-07T16:05:35.729Z,75.30
2018-10-07T16:08:04.314Z,74.80
2018-10-07T16:10:32.917Z,75.50
2018-10-07T16:13:01.564Z,74.70
2018-10-07T16:15:30.185Z,75.80
2018-10-07T16:17:58.853Z,74.40
2018-10-07T16:20:27.464Z,76.10
2018-10-07T16:22:56.552Z,76.40
2018-10-07T16:25:25.296Z,76.70
2018-10-07T16:27:53.860Z,76.00
2018-10-07T16:30:22.462Z,76.10
2018-10-07T16:32:51.048Z,76.50
2018-10-07T16:35:19.922Z,76.40
2018-10-07T16:37:48.492Z,76.10
2018-10-07T16:40:17.097Z,76.30
2018-10-07T16:42:46.621Z,77.70
2018-10-07T16:45:15.328Z,77.60
2018-10-07T16:47:43.862Z,78.00
2018-10-07T16:50:12.461Z,77.20
2018-10-07T16:52:41.091Z,79.00
2018-10-07T16:55:10.136Z,78.20
2018-10-07T16:57:38.720Z,78.10
2018-10-07T17:00:07.695Z,79.10
2018-10-07T17:02:36.417Z,80.10
2018-10-07T17:05:05.067Z,80.70
2018-10-07T17:07:33.725Z,80.40
2018-10-07T17:10:02.380Z,80.40
2018-10-07T17:12:30.956Z,80.50
2018-10-07T17:14:59.572Z,80.80
2018-10-07T17:17:28.193Z,81.60
2018-10-07T17:19:56.930Z,81.80
2018-10-07T17:22:25.610Z,81.60
2018-10-07T17:24:54.217Z,82.90
2018-10-07T17:27:22.825Z,82.50
2018-10-07T17:29:51.400Z,81.50
2018-10-07T17:32:20.004Z,82.10
2018-10-07T17:34:48.573Z,82.00
2018-10-07T17:37:17.175Z,82.60
2018-10-07T17:39:45.757Z,82.60
2018-10-07T17:42:15.236Z,83.70
2018-10-07T17:44:43.829Z,83.00
2018-10-07T17:47:12.454Z,85.10
2018-10-07T17:49:41.046Z,85.40
2018-10-07T17:52:09.690Z,85.20
2018-10-07T17:54:38.274Z,84.00
2018-10-07T17:57:06.898Z,84.40
2018-10-07T17:59:35.474Z,85.30
2018-10-07T18:02:07.069Z,83.60
2018-10-07T18:04:35.649Z,84.50
2018-10-07T18:07:04.916Z,83.70
2018-10-07T18:09:33.501Z,82.90
2018-10-07T18:12:02.094Z,83.10
2018-10-07T18:14:33.017Z,84.10
2018-10-07T18:17:01.714Z,83.70
2018-10-07T18:19:30.300Z,83.90
2018-10-07T18:21:59.016Z,82.80
2018-10-07T18:24:27.943Z,82.80
2018-10-07T18:26:56.830Z,84.00
2018-10-07T18:29:25.452Z,83.60
2018-10-07T18:31:54.081Z,83.70
2018-10-07T18:34:23.052Z,84.60
2018-10-07T18:36:51.548Z,86.50
2018-10-07T18:39:20.121Z,85.00
2018-10-07T18:41:48.774Z,86.50
2018-10-07T18:44:17.367Z,84.90
2018-10-07T18:46:46.032Z,86.90
2018-10-07T18:49:14.704Z,87.20
2018-10-07T18:51:43.509Z,84.50
2018-10-07T18:54:12.097Z,86.70
2018-10-07T18:56:40.705Z,87.80
2018-10-07T18:59:09.360Z,86.50
2018-10-07T19:01:37.969Z,87.40
2018-10-07T19:04:06.629Z,88.00
2018-10-07T19:06:35.428Z,85.20
2018-10-07T19:09:05.447Z,87.30
2018-10-07T19:11:34.088Z,86.40
2018-10-07T19:14:02.676Z,87.80
2018-10-07T19:16:31.304Z,87.40
2018-10-07T19:18:59.980Z,88.70
2018-10-07T19:21:28.589Z,86.90
2018-10-07T19:23:57.195Z,86.30
2018-10-07T19:26:25.885Z,86.60
2018-10-07T19:28:54.593Z,85.50
2018-10-07T19:31:23.192Z,88.50
2018-10-07T19:33:51.776Z,87.70
2018-10-07T19:36:20.845Z,87.80
2018-10-07T19:38:50.445Z,86.50
2018-10-07T19:41:19.158Z,87.80
2018-10-07T19:43:47.760Z,89.70
2018-10-07T19:46:16.378Z,89.00
2018-10-07T19:48:44.984Z,88.90
2018-10-07T19:51:13.768Z,88.20
2018-10-07T19:53:42.397Z,88.80
2018-10-07T19:56:10.986Z,88.20
2018-10-07T19:58:39.864Z,90.00
2018-10-07T20:01:08.442Z,88.70
2018-10-07T20:03:37.066Z,89.40
2018-10-07T20:06:05.640Z,90.80
2018-10-07T20:08:34.361Z,90.50
2018-10-07T20:11:02.936Z,90.20
2018-10-07T20:13:32.981Z,91.30
2018-10-07T20:16:01.691Z,90.50
2018-10-07T20:18:30.516Z,90.60
2018-10-07T20:20:59.170Z,91.10
2018-10-07T20:23:27.780Z,90.80
2018-10-07T20:25:57.215Z,91.00
2018-10-07T20:28:26.008Z,91.10
2018-10-07T20:30:54.593Z,91.20
2018-10-07T20:33:24.011Z,91.60
2018-10-07T20:35:52.639Z,92.20
2018-10-07T20:38:21.307Z,91.60
2018-10-07T20:40:50.014Z,91.00
2018-10-07T20:43:18.563Z,91.70
2018-10-07T20:45:47.137Z,92.00
2018-10-07T20:48:16.063Z,92.20
2018-10-07T20:50:44.664Z,92.60
2018-10-07T20:53:13.266Z,93.10
2018-10-07T20:55:41.850Z,92.30
2018-10-07T20:58:10.444Z,92.10
2018-10-07T21:00:39.020Z,93.10
2018-10-07T21:03:07.675Z,92.20
2018-10-07T21:05:36.267Z,93.50
2018-10-07T21:08:04.936Z,93.00
2018-10-07T21:10:33.525Z,93.00
2018-10-07T21:13:02.242Z,94.00
2018-10-07T21:15:30.850Z,93.00
2018-10-07T21:17:59.456Z,93.40
2018-10-07T21:20:28.027Z,92.10
2018-10-07T21:22:56.633Z,92.50
2018-10-07T21:25:25.346Z,92.50
2018-10-07T21:27:54.015Z,93.20
2018-10-07T21:30:22.602Z,92.50
2018-10-07T21:32:51.356Z,94.20
2018-10-07T21:35:19.941Z,94.10
2018-10-07T21:37:48.552Z,93.70
2018-10-07T21:40:17.126Z,94.60
2018-10-07T21:42:45.750Z,93.10
2018-10-07T21:45:14.325Z,93.10
2018-10-07T21:47:43.917Z,93.40
2018-10-07T21:50:12.517Z,92.40
2018-10-07T21:52:41.115Z,94.20
2018-10-07T21:55:09.705Z,94.00
2018-10-07T21:57:38.314Z,95.30
2018-10-07T22:00:07.928Z,95.40
2018-10-07T22:02:36.770Z,95.90
2018-10-07T22:05:05.464Z,96.50
2018-10-07T22:07:34.072Z,95.00
2018-10-07T22:10:03.214Z,94.10
2018-10-07T22:12:31.820Z,94.40
2018-10-07T22:15:00.396Z,94.60
2018-10-07T22:17:28.993Z,96.00
2018-10-07T22:19:57.614Z,94.40
2018-10-07T22:22:26.185Z,93.50
2018-10-07T22:24:54.761Z,94.60
2018-10-07T22:27:23.356Z,94.30
2018-10-07T22:29:51.925Z,95.60
2018-10-07T22:32:20.525Z,94.70
2018-10-07T22:34:49.106Z,94.90
2018-10-07T22:37:17.707Z,95.80
2018-10-07T22:39:46.332Z,95.80
2018-10-07T22:42:15.009Z,95.90
2018-10-07T22:44:43.617Z,94.90
2018-10-07T22:47:12.620Z,95.00
2018-10-07T22:49:41.196Z,94.30
2018-10-07T22:52:09.810Z,94.70
2018-10-07T22:54:38.410Z,94.80
2018-10-07T22:57:07.185Z,95.10
2018-10-07T22:59:35.784Z,94.30
2018-10-07T23:02:04.432Z,94.50
2018-10-07T23:04:33.037Z,95.20
2018-10-07T23:07:02.277Z,93.40
2018-10-07T23:09:30.863Z,93.50
2018-10-07T23:11:59.460Z,94.70
2018-10-07T23:14:28.062Z,95.10
2018-10-07T23:16:56.645Z,94.90
2018-10-07T23:19:25.365Z,94.20
2018-10-07T23:21:53.953Z,93.70
2018-10-07T23:24:22.561Z,94.20
2018-10-07T23:26:51.139Z,95.30
2018-10-07T23:29:19.737Z,94.90
2018-10-07T23:31:48.588Z,94.60
2018-10-07T23:34:17.187Z,95.00
2018-10-07T23:36:45.762Z,95.40
2018-10-07T23:39:14.353Z,95.60
2018-10-07T23:41:42.985Z,94.80
2018-10-07T23:44:11.631Z,95.20
2018-10-07T23:46:40.213Z,95.30
2018-10-07T23:49:08.817Z,96.30
2018-10-07T23:51:37.408Z,96.70
2018-10-07T23:54:06.074Z,96.40
2018-10-07T23:56:34.663Z,95.60
2018-10-07T23:59:03.268Z,96.40
